sensor_id;sensor_type;location;lat;lon;timestamp;P1;durP1;ratioP1;P2;durP2;ratioP2
51216;SDS011;37283;49.760;8.648;2023-04-03T00:00:55;4.25;;;2.95;;
51216;SDS011;37283;49.760;8.648;2023-04-03T00:03:22;4.35;;;2.90;;
51216;SDS011;37283;49.760;8.648;2023-04-03T00:05:49;4.90;;;2.88;;
51216;SDS011;37283;49.760;8.648;2023-04-03T00:08:16;5.72;;;2.80;;
51216;SDS011;37283;49.760;8.648;2023-04-03T00:10:43;4.90;;;3.05;;
51216;SDS011;37283;49.760;8.648;2023-04-03T00:13:09;6.78;;;3.15;;
51216;SDS011;37283;49.760;8.648;2023-04-03T00:15:38;5.18;;;2.90;;
51216;SDS011;37283;49.760;8.648;2023-04-03T00:18:05;7.30;;;3.40;;
51216;SDS011;37283;49.760;8.648;2023-04-03T00:20:32;5.80;;;3.30;;
51216;SDS011;37283;49.760;8.648;2023-04-03T00:22:59;4.75;;;3.03;;
51216;SDS011;37283;49.760;8.648;2023-04-03T00:25:26;3.28;;;2.95;;
51216;SDS011;37283;49.760;8.648;2023-04-03T00:27:52;4.45;;;2.85;;
51216;SDS011;37283;49.760;8.648;2023-04-03T00:30:20;6.05;;;2.97;;
51216;SDS011;37283;49.760;8.648;2023-04-03T00:32:48;5.60;;;3.50;;
51216;SDS011;37283;49.760;8.648;2023-04-03T00:35:18;5.88;;;3.22;;
51216;SDS011;37283;49.760;8.648;2023-04-03T00:37:46;4.05;;;2.88;;
51216;SDS011;37283;49.760;8.648;2023-04-03T00:40:14;4.15;;;3.05;;
51216;SDS011;37283;49.760;8.648;2023-04-03T00:42:41;4.72;;;3.13;;
51216;SDS011;37283;49.760;8.648;2023-04-03T00:47:44;5.03;;;3.00;;
51216;SDS011;37283;49.760;8.648;2023-04-03T00:50:11;6.20;;;3.22;;
51216;SDS011;37283;49.760;8.648;2023-04-03T00:52:38;3.25;;;2.60;;
51216;SDS011;37283;49.760;8.648;2023-04-03T00:55:06;5.43;;;2.90;;
51216;SDS011;37283;49.760;8.648;2023-04-03T00:57:35;5.07;;;3.30;;
51216;SDS011;37283;49.760;8.648;2023-04-03T01:00:04;5.32;;;3.45;;
51216;SDS011;37283;49.760;8.648;2023-04-03T01:02:35;6.15;;;3.60;;
51216;SDS011;37283;49.760;8.648;2023-04-03T01:05:03;4.00;;;2.78;;
51216;SDS011;37283;49.760;8.648;2023-04-03T01:07:30;5.72;;;2.90;;
51216;SDS011;37283;49.760;8.648;2023-04-03T01:10:00;3.38;;;2.88;;
51216;SDS011;37283;49.760;8.648;2023-04-03T01:12:29;4.43;;;3.00;;
51216;SDS011;37283;49.760;8.648;2023-04-03T01:15:07;7.95;;;3.33;;
51216;SDS011;37283;49.760;8.648;2023-04-03T01:22:46;4.50;;;2.83;;
51216;SDS011;37283;49.760;8.648;2023-04-03T01:25:22;5.35;;;3.75;;
51216;SDS011;37283;49.760;8.648;2023-04-03T01:27:50;5.57;;;3.00;;
51216;SDS011;37283;49.760;8.648;2023-04-03T01:30:17;7.00;;;3.30;;
51216;SDS011;37283;49.760;8.648;2023-04-03T01:32:45;4.13;;;3.20;;
51216;SDS011;37283;49.760;8.648;2023-04-03T01:35:12;5.72;;;2.97;;
51216;SDS011;37283;49.760;8.648;2023-04-03T01:37:39;5.18;;;3.60;;
51216;SDS011;37283;49.760;8.648;2023-04-03T01:40:06;6.75;;;3.13;;
51216;SDS011;37283;49.760;8.648;2023-04-03T01:42:33;4.43;;;3.03;;
51216;SDS011;37283;49.760;8.648;2023-04-03T01:45:01;4.72;;;3.00;;
51216;SDS011;37283;49.760;8.648;2023-04-03T01:47:27;6.20;;;3.20;;
51216;SDS011;37283;49.760;8.648;2023-04-03T01:49:54;5.43;;;3.20;;
51216;SDS011;37283;49.760;8.648;2023-04-03T01:52:21;6.70;;;3.10;;
51216;SDS011;37283;49.760;8.648;2023-04-03T01:54:50;4.40;;;3.20;;
51216;SDS011;37283;49.760;8.648;2023-04-03T01:57:16;5.32;;;3.28;;
51216;SDS011;37283;49.760;8.648;2023-04-03T01:59:43;4.50;;;3.00;;
51216;SDS011;37283;49.760;8.648;2023-04-03T02:02:10;5.72;;;3.28;;
51216;SDS011;37283;49.760;8.648;2023-04-03T02:04:38;5.33;;;3.00;;
51216;SDS011;37283;49.760;8.648;2023-04-03T02:07:05;4.97;;;3.42;;
51216;SDS011;37283;49.760;8.648;2023-04-03T02:09:32;5.03;;;3.17;;
51216;SDS011;37283;49.760;8.648;2023-04-03T02:11:58;6.22;;;3.88;;
51216;SDS011;37283;49.760;8.648;2023-04-03T02:14:25;9.15;;;3.30;;
51216;SDS011;37283;49.760;8.648;2023-04-03T02:16:53;5.47;;;3.03;;
51216;SDS011;37283;49.760;8.648;2023-04-03T02:19:21;5.75;;;3.15;;
51216;SDS011;37283;49.760;8.648;2023-04-03T02:21:48;5.20;;;2.92;;
51216;SDS011;37283;49.760;8.648;2023-04-03T02:24:14;5.72;;;2.70;;
51216;SDS011;37283;49.760;8.648;2023-04-03T02:26:41;7.30;;;2.80;;
51216;SDS011;37283;49.760;8.648;2023-04-03T02:29:07;5.88;;;3.35;;
51216;SDS011;37283;49.760;8.648;2023-04-03T02:31:34;5.50;;;3.08;;
51216;SDS011;37283;49.760;8.648;2023-04-03T02:34:01;4.75;;;3.35;;
51216;SDS011;37283;49.760;8.648;2023-04-03T02:36:29;5.80;;;3.00;;
51216;SDS011;37283;49.760;8.648;2023-04-03T02:39:01;5.00;;;2.78;;
51216;SDS011;37283;49.760;8.648;2023-04-03T02:41:29;5.38;;;3.30;;
51216;SDS011;37283;49.760;8.648;2023-04-03T02:44:03;5.63;;;3.42;;
51216;SDS011;37283;49.760;8.648;2023-04-03T02:46:31;7.35;;;3.00;;
51216;SDS011;37283;49.760;8.648;2023-04-03T02:48:58;4.72;;;3.03;;
51216;SDS011;37283;49.760;8.648;2023-04-03T02:51:25;4.93;;;3.10;;
51216;SDS011;37283;49.760;8.648;2023-04-03T02:53:52;7.32;;;2.92;;
51216;SDS011;37283;49.760;8.648;2023-04-03T02:56:23;5.55;;;2.72;;
51216;SDS011;37283;49.760;8.648;2023-04-03T02:58:49;4.75;;;2.53;;
51216;SDS011;37283;49.760;8.648;2023-04-03T03:01:18;6.13;;;2.92;;
51216;SDS011;37283;49.760;8.648;2023-04-03T03:03:45;4.93;;;3.00;;
51216;SDS011;37283;49.760;8.648;2023-04-03T03:06:13;5.35;;;2.88;;
51216;SDS011;37283;49.760;8.648;2023-04-03T03:08:41;5.50;;;3.20;;
51216;SDS011;37283;49.760;8.648;2023-04-03T03:11:08;4.57;;;3.17;;
51216;SDS011;37283;49.760;8.648;2023-04-03T03:13:35;6.18;;;3.03;;
51216;SDS011;37283;49.760;8.648;2023-04-03T03:16:02;4.97;;;3.42;;
51216;SDS011;37283;49.760;8.648;2023-04-03T03:18:30;4.40;;;3.15;;
51216;SDS011;37283;49.760;8.648;2023-04-03T03:20:57;6.13;;;3.08;;
51216;SDS011;37283;49.760;8.648;2023-04-03T03:23:25;5.07;;;3.17;;
51216;SDS011;37283;49.760;8.648;2023-04-03T03:25:56;7.30;;;3.28;;
51216;SDS011;37283;49.760;8.648;2023-04-03T03:28:23;9.07;;;3.20;;
51216;SDS011;37283;49.760;8.648;2023-04-03T03:30:51;4.40;;;3.17;;
51216;SDS011;37283;49.760;8.648;2023-04-03T03:33:19;5.28;;;3.55;;
51216;SDS011;37283;49.760;8.648;2023-04-03T03:35:45;5.25;;;3.17;;
51216;SDS011;37283;49.760;8.648;2023-04-03T03:38:12;6.03;;;3.05;;
51216;SDS011;37283;49.760;8.648;2023-04-03T03:40:39;5.78;;;3.42;;
51216;SDS011;37283;49.760;8.648;2023-04-03T03:43:06;4.97;;;3.30;;
51216;SDS011;37283;49.760;8.648;2023-04-03T03:45:33;5.32;;;2.85;;
51216;SDS011;37283;49.760;8.648;2023-04-03T03:48:01;5.70;;;3.15;;
51216;SDS011;37283;49.760;8.648;2023-04-03T03:50:29;7.65;;;3.10;;
51216;SDS011;37283;49.760;8.648;2023-04-03T03:52:56;8.00;;;3.30;;
51216;SDS011;37283;49.760;8.648;2023-04-03T03:55:23;5.88;;;3.08;;
51216;SDS011;37283;49.760;8.648;2023-04-03T03:57:52;6.22;;;3.33;;
51216;SDS011;37283;49.760;8.648;2023-04-03T04:00:20;5.35;;;3.28;;
51216;SDS011;37283;49.760;8.648;2023-04-03T04:02:52;5.00;;;3.25;;
51216;SDS011;37283;49.760;8.648;2023-04-03T04:05:23;4.78;;;2.90;;
51216;SDS011;37283;49.760;8.648;2023-04-03T04:07:52;6.40;;;3.00;;
51216;SDS011;37283;49.760;8.648;2023-04-03T04:10:18;5.57;;;3.13;;
51216;SDS011;37283;49.760;8.648;2023-04-03T04:12:46;6.72;;;2.85;;
51216;SDS011;37283;49.760;8.648;2023-04-03T04:15:12;8.68;;;3.40;;
51216;SDS011;37283;49.760;8.648;2023-04-03T04:17:39;4.93;;;3.20;;
51216;SDS011;37283;49.760;8.648;2023-04-03T04:20:10;4.65;;;2.90;;
51216;SDS011;37283;49.760;8.648;2023-04-03T04:22:38;5.15;;;2.80;;
51216;SDS011;37283;49.760;8.648;2023-04-03T04:25:05;6.97;;;2.90;;
51216;SDS011;37283;49.760;8.648;2023-04-03T04:27:33;4.70;;;2.85;;
51216;SDS011;37283;49.760;8.648;2023-04-03T04:30:00;7.72;;;3.40;;
51216;SDS011;37283;49.760;8.648;2023-04-03T04:32:27;4.70;;;2.83;;
51216;SDS011;37283;49.760;8.648;2023-04-03T04:34:54;7.05;;;2.88;;
51216;SDS011;37283;49.760;8.648;2023-04-03T04:37:21;5.75;;;2.88;;
51216;SDS011;37283;49.760;8.648;2023-04-03T04:39:48;4.30;;;2.65;;
51216;SDS011;37283;49.760;8.648;2023-04-03T04:42:15;5.95;;;3.00;;
51216;SDS011;37283;49.760;8.648;2023-04-03T04:44:45;5.22;;;2.67;;
51216;SDS011;37283;49.760;8.648;2023-04-03T04:47:13;8.75;;;2.97;;
51216;SDS011;37283;49.760;8.648;2023-04-03T04:49:41;7.35;;;2.88;;
51216;SDS011;37283;49.760;8.648;2023-04-03T04:52:08;6.43;;;2.90;;
51216;SDS011;37283;49.760;8.648;2023-04-03T04:54:37;6.13;;;2.60;;
51216;SDS011;37283;49.760;8.648;2023-04-03T04:57:04;6.38;;;2.63;;
51216;SDS011;37283;49.760;8.648;2023-04-03T04:59:31;6.53;;;2.95;;
51216;SDS011;37283;49.760;8.648;2023-04-03T05:01:58;5.10;;;2.38;;
51216;SDS011;37283;49.760;8.648;2023-04-03T05:04:26;5.82;;;2.50;;
51216;SDS011;37283;49.760;8.648;2023-04-03T05:06:59;6.00;;;2.72;;
51216;SDS011;37283;49.760;8.648;2023-04-03T05:09:28;6.15;;;2.60;;
51216;SDS011;37283;49.760;8.648;2023-04-03T05:11:55;6.07;;;2.80;;
51216;SDS011;37283;49.760;8.648;2023-04-03T05:14:25;5.47;;;2.60;;
51216;SDS011;37283;49.760;8.648;2023-04-03T05:16:54;7.70;;;2.70;;
51216;SDS011;37283;49.760;8.648;2023-04-03T05:19:24;5.00;;;2.45;;
51216;SDS011;37283;49.760;8.648;2023-04-03T05:21:51;5.68;;;2.35;;
51216;SDS011;37283;49.760;8.648;2023-04-03T05:24:19;9.38;;;2.58;;
51216;SDS011;37283;49.760;8.648;2023-04-03T05:26:46;5.40;;;2.47;;
51216;SDS011;37283;49.760;8.648;2023-04-03T05:29:14;7.47;;;2.92;;
51216;SDS011;37283;49.760;8.648;2023-04-03T05:31:41;6.53;;;2.60;;
51216;SDS011;37283;49.760;8.648;2023-04-03T05:34:10;5.60;;;2.60;;
51216;SDS011;37283;49.760;8.648;2023-04-03T05:36:38;7.13;;;3.00;;
51216;SDS011;37283;49.760;8.648;2023-04-03T05:39:07;7.03;;;2.55;;
51216;SDS011;37283;49.760;8.648;2023-04-03T05:41:37;4.97;;;2.55;;
51216;SDS011;37283;49.760;8.648;2023-04-03T05:44:03;4.93;;;2.50;;
51216;SDS011;37283;49.760;8.648;2023-04-03T05:46:30;7.07;;;2.53;;
51216;SDS011;37283;49.760;8.648;2023-04-03T05:49:01;6.63;;;2.65;;
51216;SDS011;37283;49.760;8.648;2023-04-03T05:51:34;5.93;;;2.72;;
51216;SDS011;37283;49.760;8.648;2023-04-03T05:54:13;7.70;;;2.40;;
51216;SDS011;37283;49.760;8.648;2023-04-03T05:56:55;6.30;;;2.90;;
51216;SDS011;37283;49.760;8.648;2023-04-03T05:59:22;7.85;;;2.38;;
51216;SDS011;37283;49.760;8.648;2023-04-03T06:01:51;4.47;;;2.80;;
51216;SDS011;37283;49.760;8.648;2023-04-03T06:04:18;9.07;;;2.67;;
51216;SDS011;37283;49.760;8.648;2023-04-03T06:06:53;5.60;;;2.60;;
51216;SDS011;37283;49.760;8.648;2023-04-03T06:09:22;10.80;;;2.60;;
51216;SDS011;37283;49.760;8.648;2023-04-03T06:11:50;6.10;;;2.47;;
51216;SDS011;37283;49.760;8.648;2023-04-03T06:14:19;5.80;;;2.40;;
51216;SDS011;37283;49.760;8.648;2023-04-03T06:16:46;5.13;;;2.38;;
51216;SDS011;37283;49.760;8.648;2023-04-03T06:19:13;6.45;;;2.63;;
51216;SDS011;37283;49.760;8.648;2023-04-03T06:21:45;5.75;;;2.63;;
51216;SDS011;37283;49.760;8.648;2023-04-03T06:24:14;5.15;;;2.75;;
51216;SDS011;37283;49.760;8.648;2023-04-03T06:26:42;6.50;;;2.42;;
51216;SDS011;37283;49.760;8.648;2023-04-03T06:29:09;4.40;;;2.38;;
51216;SDS011;37283;49.760;8.648;2023-04-03T06:31:35;6.32;;;2.80;;
51216;SDS011;37283;49.760;8.648;2023-04-03T06:36:34;4.55;;;2.30;;
51216;SDS011;37283;49.760;8.648;2023-04-03T06:39:01;7.30;;;2.80;;
51216;SDS011;37283;49.760;8.648;2023-04-03T06:41:29;6.82;;;2.47;;
51216;SDS011;37283;49.760;8.648;2023-04-03T06:43:55;9.52;;;3.60;;
51216;SDS011;37283;49.760;8.648;2023-04-03T06:46:23;9.52;;;2.70;;
51216;SDS011;37283;49.760;8.648;2023-04-03T06:48:51;8.05;;;2.90;;
51216;SDS011;37283;49.760;8.648;2023-04-03T06:51:22;7.05;;;2.50;;
51216;SDS011;37283;49.760;8.648;2023-04-03T06:53:51;8.80;;;2.30;;
51216;SDS011;37283;49.760;8.648;2023-04-03T06:56:19;6.67;;;2.73;;
51216;SDS011;37283;49.760;8.648;2023-04-03T06:58:45;5.78;;;2.13;;
51216;SDS011;37283;49.760;8.648;2023-04-03T07:01:13;11.32;;;4.07;;
51216;SDS011;37283;49.760;8.648;2023-04-03T07:03:41;6.18;;;2.75;;
51216;SDS011;37283;49.760;8.648;2023-04-03T07:06:09;4.45;;;2.35;;
51216;SDS011;37283;49.760;8.648;2023-04-03T07:08:37;6.65;;;3.22;;
51216;SDS011;37283;49.760;8.648;2023-04-03T07:11:04;7.85;;;2.88;;
51216;SDS011;37283;49.760;8.648;2023-04-03T07:13:31;6.43;;;2.83;;
51216;SDS011;37283;49.760;8.648;2023-04-03T07:15:58;13.20;;;4.60;;
51216;SDS011;37283;49.760;8.648;2023-04-03T07:18:25;7.72;;;3.30;;
51216;SDS011;37283;49.760;8.648;2023-04-03T07:20:52;7.07;;;2.70;;
51216;SDS011;37283;49.760;8.648;2023-04-03T07:23:18;6.50;;;2.50;;
51216;SDS011;37283;49.760;8.648;2023-04-03T07:25:45;4.20;;;2.17;;
51216;SDS011;37283;49.760;8.648;2023-04-03T07:28:13;6.47;;;2.80;;
51216;SDS011;37283;49.760;8.648;2023-04-03T07:30:45;5.68;;;2.35;;
51216;SDS011;37283;49.760;8.648;2023-04-03T07:33:13;7.47;;;3.10;;
51216;SDS011;37283;49.760;8.648;2023-04-03T07:35:42;6.35;;;2.20;;
51216;SDS011;37283;49.760;8.648;2023-04-03T07:38:09;7.25;;;2.63;;
51216;SDS011;37283;49.760;8.648;2023-04-03T07:40:36;9.07;;;2.67;;
51216;SDS011;37283;49.760;8.648;2023-04-03T07:43:03;5.35;;;1.95;;
51216;SDS011;37283;49.760;8.648;2023-04-03T07:45:29;6.25;;;2.33;;
51216;SDS011;37283;49.760;8.648;2023-04-03T07:47:56;5.50;;;1.73;;
51216;SDS011;37283;49.760;8.648;2023-04-03T07:50:23;7.72;;;2.08;;
51216;SDS011;37283;49.760;8.648;2023-04-03T07:52:49;4.03;;;1.70;;
51216;SDS011;37283;49.760;8.648;2023-04-03T07:55:17;5.97;;;1.77;;
51216;SDS011;37283;49.760;8.648;2023-04-03T07:57:43;5.20;;;1.73;;
51216;SDS011;37283;49.760;8.648;2023-04-03T08:00:10;6.95;;;2.10;;
51216;SDS011;37283;49.760;8.648;2023-04-03T08:02:39;6.20;;;2.10;;
51216;SDS011;37283;49.760;8.648;2023-04-03T08:05:06;6.78;;;2.17;;
51216;SDS011;37283;49.760;8.648;2023-04-03T08:07:33;5.28;;;2.00;;
51216;SDS011;37283;49.760;8.648;2023-04-03T08:09:59;5.75;;;1.80;;
51216;SDS011;37283;49.760;8.648;2023-04-03T08:12:26;5.05;;;1.70;;
51216;SDS011;37283;49.760;8.648;2023-04-03T08:14:54;4.95;;;1.70;;
51216;SDS011;37283;49.760;8.648;2023-04-03T08:17:21;5.60;;;1.65;;
51216;SDS011;37283;49.760;8.648;2023-04-03T08:19:47;9.65;;;2.78;;
51216;SDS011;37283;49.760;8.648;2023-04-03T08:22:14;4.07;;;1.60;;
51216;SDS011;37283;49.760;8.648;2023-04-03T08:24:41;4.90;;;1.88;;
51216;SDS011;37283;49.760;8.648;2023-04-03T08:27:24;5.53;;;1.77;;
51216;SDS011;37283;49.760;8.648;2023-04-03T08:29:50;8.88;;;2.00;;
51216;SDS011;37283;49.760;8.648;2023-04-03T08:32:17;9.82;;;2.60;;
51216;SDS011;37283;49.760;8.648;2023-04-03T08:34:45;5.35;;;1.88;;
51216;SDS011;37283;49.760;8.648;2023-04-03T08:37:12;6.03;;;1.83;;
51216;SDS011;37283;49.760;8.648;2023-04-03T08:39:38;6.47;;;1.80;;
51216;SDS011;37283;49.760;8.648;2023-04-03T08:42:05;3.90;;;1.30;;
51216;SDS011;37283;49.760;8.648;2023-04-03T08:44:47;3.38;;;1.60;;
51216;SDS011;37283;49.760;8.648;2023-04-03T08:47:28;6.68;;;2.25;;
51216;SDS011;37283;49.760;8.648;2023-04-03T08:49:59;5.28;;;1.52;;
51216;SDS011;37283;49.760;8.648;2023-04-03T08:52:32;6.78;;;2.53;;
51216;SDS011;37283;49.760;8.648;2023-04-03T08:55:26;5.93;;;2.20;;
51216;SDS011;37283;49.760;8.648;2023-04-03T08:58:05;5.15;;;2.22;;
51216;SDS011;37283;49.760;8.648;2023-04-03T09:00:49;3.50;;;1.50;;
51216;SDS011;37283;49.760;8.648;2023-04-03T09:03:30;3.63;;;1.40;;
51216;SDS011;37283;49.760;8.648;2023-04-03T09:11:20;5.85;;;1.80;;
51216;SDS011;37283;49.760;8.648;2023-04-03T09:14:03;3.85;;;1.45;;
51216;SDS011;37283;49.760;8.648;2023-04-03T09:16:56;3.85;;;1.50;;
51216;SDS011;37283;49.760;8.648;2023-04-03T09:21:57;5.30;;;1.50;;
51216;SDS011;37283;49.760;8.648;2023-04-03T09:24:25;8.10;;;1.80;;
51216;SDS011;37283;49.760;8.648;2023-04-03T09:26:56;5.22;;;1.60;;
51216;SDS011;37283;49.760;8.648;2023-04-03T09:29:28;7.13;;;1.77;;
51216;SDS011;37283;49.760;8.648;2023-04-03T09:32:01;3.25;;;1.58;;
51216;SDS011;37283;49.760;8.648;2023-04-03T09:34:32;6.18;;;1.60;;
51216;SDS011;37283;49.760;8.648;2023-04-03T09:37:02;4.68;;;1.75;;
51216;SDS011;37283;49.760;8.648;2023-04-03T09:39:33;6.00;;;2.10;;
51216;SDS011;37283;49.760;8.648;2023-04-03T09:42:22;4.90;;;1.67;;
51216;SDS011;37283;49.760;8.648;2023-04-03T09:44:54;5.07;;;1.90;;
51216;SDS011;37283;49.760;8.648;2023-04-03T09:47:26;7.45;;;3.05;;
51216;SDS011;37283;49.760;8.648;2023-04-03T09:52:39;4.30;;;1.40;;
51216;SDS011;37283;49.760;8.648;2023-04-03T09:55:07;4.38;;;1.83;;
51216;SDS011;37283;49.760;8.648;2023-04-03T09:57:36;3.38;;;1.27;;
51216;SDS011;37283;49.760;8.648;2023-04-03T10:00:03;2.53;;;1.33;;
51216;SDS011;37283;49.760;8.648;2023-04-03T10:02:38;2.42;;;1.35;;
51216;SDS011;37283;49.760;8.648;2023-04-03T10:05:25;4.18;;;1.60;;
51216;SDS011;37283;49.760;8.648;2023-04-03T10:10:37;3.47;;;1.60;;
51216;SDS011;37283;49.760;8.648;2023-04-03T10:13:05;5.22;;;1.80;;
51216;SDS011;37283;49.760;8.648;2023-04-03T10:15:50;3.33;;;1.27;;
51216;SDS011;37283;49.760;8.648;2023-04-03T10:21:10;2.38;;;1.20;;
51216;SDS011;37283;49.760;8.648;2023-04-03T10:24:36;2.08;;;1.20;;
51216;SDS011;37283;49.760;8.648;2023-04-03T10:29:51;8.43;;;2.07;;
51216;SDS011;37283;49.760;8.648;2023-04-03T10:32:25;4.57;;;1.58;;
51216;SDS011;37283;49.760;8.648;2023-04-03T10:35:01;4.57;;;1.35;;
51216;SDS011;37283;49.760;8.648;2023-04-03T10:46:00;4.07;;;1.75;;
51216;SDS011;37283;49.760;8.648;2023-04-03T10:48:35;3.95;;;1.40;;
51216;SDS011;37283;49.760;8.648;2023-04-03T10:51:14;5.38;;;1.63;;
51216;SDS011;37283;49.760;8.648;2023-04-03T10:59:05;3.95;;;1.73;;
51216;SDS011;37283;49.760;8.648;2023-04-03T11:01:39;4.60;;;1.50;;
51216;SDS011;37283;49.760;8.648;2023-04-03T11:04:07;2.83;;;1.38;;
51216;SDS011;37283;49.760;8.648;2023-04-03T11:06:57;4.18;;;1.67;;
51216;SDS011;37283;49.760;8.648;2023-04-03T11:09:30;4.18;;;1.70;;
51216;SDS011;37283;49.760;8.648;2023-04-03T11:15:15;3.50;;;1.45;;
51216;SDS011;37283;49.760;8.648;2023-04-03T11:17:58;2.70;;;1.40;;
51216;SDS011;37283;49.760;8.648;2023-04-03T11:20:31;4.20;;;1.38;;
51216;SDS011;37283;49.760;8.648;2023-04-03T11:23:00;3.75;;;1.50;;
51216;SDS011;37283;49.760;8.648;2023-04-03T11:25:31;3.83;;;1.48;;
51216;SDS011;37283;49.760;8.648;2023-04-03T11:28:00;4.50;;;1.42;;
51216;SDS011;37283;49.760;8.648;2023-04-03T11:30:33;3.92;;;1.85;;
51216;SDS011;37283;49.760;8.648;2023-04-03T11:35:48;3.80;;;1.42;;
51216;SDS011;37283;49.760;8.648;2023-04-03T11:38:19;3.10;;;1.50;;
51216;SDS011;37283;49.760;8.648;2023-04-03T11:40:49;6.18;;;2.05;;
51216;SDS011;37283;49.760;8.648;2023-04-03T11:43:27;5.78;;;1.80;;
51216;SDS011;37283;49.760;8.648;2023-04-03T11:46:05;5.55;;;1.70;;
51216;SDS011;37283;49.760;8.648;2023-04-03T11:51:37;4.80;;;1.50;;
51216;SDS011;37283;49.760;8.648;2023-04-03T11:53:54;2.55;;;1.40;;
51216;SDS011;37283;49.760;8.648;2023-04-03T12:04:25;3.85;;;1.52;;
51216;SDS011;37283;49.760;8.648;2023-04-03T12:06:58;3.72;;;1.25;;
51216;SDS011;37283;49.760;8.648;2023-04-03T12:11:57;3.90;;;1.23;;
51216;SDS011;37283;49.760;8.648;2023-04-03T12:14:25;3.93;;;1.50;;
51216;SDS011;37283;49.760;8.648;2023-04-03T12:16:52;2.90;;;1.42;;
51216;SDS011;37283;49.760;8.648;2023-04-03T12:19:29;5.35;;;1.40;;
51216;SDS011;37283;49.760;8.648;2023-04-03T12:22:15;3.60;;;1.38;;
51216;SDS011;37283;49.760;8.648;2023-04-03T12:24:43;2.53;;;1.40;;
51216;SDS011;37283;49.760;8.648;2023-04-03T12:40:50;5.15;;;1.88;;
51216;SDS011;37283;49.760;8.648;2023-04-03T12:43:28;3.58;;;1.60;;
51216;SDS011;37283;49.760;8.648;2023-04-03T12:48:36;4.25;;;1.60;;
51216;SDS011;37283;49.760;8.648;2023-04-03T12:51:05;5.15;;;1.70;;
51216;SDS011;37283;49.760;8.648;2023-04-03T12:53:33;8.27;;;2.00;;
51216;SDS011;37283;49.760;8.648;2023-04-03T12:56:23;3.67;;;1.40;;
51216;SDS011;37283;49.760;8.648;2023-04-03T12:58:50;4.33;;;1.47;;
51216;SDS011;37283;49.760;8.648;2023-04-03T13:01:18;3.05;;;1.50;;
51216;SDS011;37283;49.760;8.648;2023-04-03T13:03:48;3.60;;;1.50;;
51216;SDS011;37283;49.760;8.648;2023-04-03T13:06:36;5.40;;;1.90;;
51216;SDS011;37283;49.760;8.648;2023-04-03T13:09:06;3.55;;;1.50;;
51216;SDS011;37283;49.760;8.648;2023-04-03T13:11:36;3.25;;;1.45;;
51216;SDS011;37283;49.760;8.648;2023-04-03T13:14:12;2.20;;;1.20;;
51216;SDS011;37283;49.760;8.648;2023-04-03T13:16:41;3.15;;;1.25;;
51216;SDS011;37283;49.760;8.648;2023-04-03T13:19:15;2.78;;;1.38;;
51216;SDS011;37283;49.760;8.648;2023-04-03T13:21:43;2.78;;;1.42;;
51216;SDS011;37283;49.760;8.648;2023-04-03T13:24:10;3.28;;;1.30;;
51216;SDS011;37283;49.760;8.648;2023-04-03T13:26:41;2.70;;;1.42;;
51216;SDS011;37283;49.760;8.648;2023-04-03T13:29:17;3.65;;;1.20;;
51216;SDS011;37283;49.760;8.648;2023-04-03T13:31:56;5.78;;;1.42;;
51216;SDS011;37283;49.760;8.648;2023-04-03T13:34:25;3.47;;;1.52;;
51216;SDS011;37283;49.760;8.648;2023-04-03T13:39:22;3.38;;;1.55;;
51216;SDS011;37283;49.760;8.648;2023-04-03T13:41:54;5.10;;;1.48;;
51216;SDS011;37283;49.760;8.648;2023-04-03T13:44:40;3.42;;;1.50;;
51216;SDS011;37283;49.760;8.648;2023-04-03T13:49:37;3.17;;;1.75;;
51216;SDS011;37283;49.760;8.648;2023-04-03T13:54:59;2.88;;;1.45;;
51216;SDS011;37283;49.760;8.648;2023-04-03T13:57:29;5.93;;;1.50;;
51216;SDS011;37283;49.760;8.648;2023-04-03T13:59:55;2.72;;;1.60;;
51216;SDS011;37283;49.760;8.648;2023-04-03T14:02:28;3.20;;;1.42;;
51216;SDS011;37283;49.760;8.648;2023-04-03T14:04:57;4.15;;;1.55;;
51216;SDS011;37283;49.760;8.648;2023-04-03T14:07:28;6.13;;;2.00;;
51216;SDS011;37283;49.760;8.648;2023-04-03T14:09:57;3.53;;;1.40;;
51216;SDS011;37283;49.760;8.648;2023-04-03T14:12:27;3.10;;;1.67;;
51216;SDS011;37283;49.760;8.648;2023-04-03T14:14:59;3.22;;;1.65;;
51216;SDS011;37283;49.760;8.648;2023-04-03T14:17:27;3.63;;;1.60;;
51216;SDS011;37283;49.760;8.648;2023-04-03T14:19:54;3.75;;;1.35;;
51216;SDS011;37283;49.760;8.648;2023-04-03T14:22:24;6.00;;;1.85;;
51216;SDS011;37283;49.760;8.648;2023-04-03T14:24:52;3.33;;;1.65;;
51216;SDS011;37283;49.760;8.648;2023-04-03T14:27:23;2.20;;;1.20;;
51216;SDS011;37283;49.760;8.648;2023-04-03T14:29:50;2.30;;;1.30;;
51216;SDS011;37283;49.760;8.648;2023-04-03T14:32:19;3.10;;;1.27;;
51216;SDS011;37283;49.760;8.648;2023-04-03T14:34:46;2.40;;;1.10;;
51216;SDS011;37283;49.760;8.648;2023-04-03T14:37:15;2.78;;;1.33;;
51216;SDS011;37283;49.760;8.648;2023-04-03T14:39:44;4.70;;;1.70;;
51216;SDS011;37283;49.760;8.648;2023-04-03T14:42:12;3.63;;;1.55;;
51216;SDS011;37283;49.760;8.648;2023-04-03T14:44:40;3.25;;;1.30;;
51216;SDS011;37283;49.760;8.648;2023-04-03T14:47:11;5.88;;;1.27;;
51216;SDS011;37283;49.760;8.648;2023-04-03T14:49:55;4.72;;;1.40;;
51216;SDS011;37283;49.760;8.648;2023-04-03T14:52:26;4.93;;;1.60;;
51216;SDS011;37283;49.760;8.648;2023-04-03T14:54:55;2.45;;;1.40;;
51216;SDS011;37283;49.760;8.648;2023-04-03T14:57:23;3.10;;;1.48;;
51216;SDS011;37283;49.760;8.648;2023-04-03T14:59:51;2.97;;;1.30;;
51216;SDS011;37283;49.760;8.648;2023-04-03T15:04:50;3.17;;;1.40;;
51216;SDS011;37283;49.760;8.648;2023-04-03T15:07:19;2.55;;;1.20;;
51216;SDS011;37283;49.760;8.648;2023-04-03T15:09:46;3.45;;;1.35;;
51216;SDS011;37283;49.760;8.648;2023-04-03T15:12:12;3.58;;;1.20;;
51216;SDS011;37283;49.760;8.648;2023-04-03T15:14:44;2.22;;;1.27;;
51216;SDS011;37283;49.760;8.648;2023-04-03T15:17:19;3.60;;;1.67;;
51216;SDS011;37283;49.760;8.648;2023-04-03T15:19:47;2.28;;;1.17;;
51216;SDS011;37283;49.760;8.648;2023-04-03T15:22:15;3.45;;;1.40;;
51216;SDS011;37283;49.760;8.648;2023-04-03T15:24:43;2.72;;;1.20;;
51216;SDS011;37283;49.760;8.648;2023-04-03T15:27:10;3.15;;;1.30;;
51216;SDS011;37283;49.760;8.648;2023-04-03T15:29:38;3.78;;;1.33;;
51216;SDS011;37283;49.760;8.648;2023-04-03T15:32:06;6.72;;;1.35;;
51216;SDS011;37283;49.760;8.648;2023-04-03T15:34:32;3.70;;;1.10;;
51216;SDS011;37283;49.760;8.648;2023-04-03T15:36:59;3.83;;;1.30;;
51216;SDS011;37283;49.760;8.648;2023-04-03T15:39:25;2.05;;;1.23;;
51216;SDS011;37283;49.760;8.648;2023-04-03T15:41:52;3.70;;;1.10;;
51216;SDS011;37283;49.760;8.648;2023-04-03T15:44:20;5.78;;;1.50;;
51216;SDS011;37283;49.760;8.648;2023-04-03T15:46:47;2.83;;;1.27;;
51216;SDS011;37283;49.760;8.648;2023-04-03T15:49:14;2.88;;;1.38;;
51216;SDS011;37283;49.760;8.648;2023-04-03T15:51:41;1.95;;;1.10;;
51216;SDS011;37283;49.760;8.648;2023-04-03T15:54:07;3.00;;;1.38;;
51216;SDS011;37283;49.760;8.648;2023-04-03T15:56:34;2.35;;;1.25;;
51216;SDS011;37283;49.760;8.648;2023-04-03T15:59:01;2.42;;;1.58;;
51216;SDS011;37283;49.760;8.648;2023-04-03T16:01:27;4.35;;;1.48;;
51216;SDS011;37283;49.760;8.648;2023-04-03T16:03:54;3.10;;;1.42;;
51216;SDS011;37283;49.760;8.648;2023-04-03T16:06:20;3.60;;;1.40;;
51216;SDS011;37283;49.760;8.648;2023-04-03T16:08:47;2.92;;;1.40;;
51216;SDS011;37283;49.760;8.648;2023-04-03T16:11:14;10.07;;;2.00;;
51216;SDS011;37283;49.760;8.648;2023-04-03T16:13:41;3.83;;;1.60;;
51216;SDS011;37283;49.760;8.648;2023-04-03T16:16:08;4.78;;;1.60;;
51216;SDS011;37283;49.760;8.648;2023-04-03T16:18:35;3.67;;;1.70;;
51216;SDS011;37283;49.760;8.648;2023-04-03T16:21:02;3.28;;;1.63;;
51216;SDS011;37283;49.760;8.648;2023-04-03T16:23:28;3.58;;;1.80;;
51216;SDS011;37283;49.760;8.648;2023-04-03T16:25:54;4.55;;;2.00;;
51216;SDS011;37283;49.760;8.648;2023-04-03T16:28:21;4.05;;;1.70;;
51216;SDS011;37283;49.760;8.648;2023-04-03T16:30:47;5.70;;;2.63;;